Trevor, Wisconsin
Current Conditions -  °F | °C
As of 10:07 PM on Tuesday 25 Nov 2014 (Local Time) from KENW Reporting Station
Broken Clouds Broken Clouds  
Wind Chill: -12°   Ceiling: 1400
Heat Index: -8°   Visibility: 7mi
Dew Point: -10°   Wind: 5mph
Humidity: 84%   Direction: 220°SW
Pressure: 30.18"   Gusts: NA
Location:  42.51°N, 88.12°W
Report Text: KENW 260407Z AUTO 22004KT 7SM BKN014 M08/M10 A3018 RMK AO2 T10781100
Loading
Personal Weather Stations






























Interactive Weather Map New forecast layout! Learn more

10-Day Weather Forecast

Advertisements
Track Severe Weather on mobile